Time;durP1;ratioP1;P1;durP2;ratioP2;P2;SDS_P1;SDS_P2;PMS_P1;PMS_P2;Temp;Humidity;BMP_temperature;BMP_pressure;BME280_temperature;BME280_humidity;BME280_pressure;Samples;Min_cycle;Max_cycle;Signal;HPM_P1;HPM_P2
2023/04/03 00:01:32;;;;;;;8.10;1.80;;;;;;;-0.08;65.37;101845.48;111070;1211;97704;-62
2023/04/03 00:03:57;;;;;;;8.60;1.70;;;;;;;-0.11;65.39;101845.09;111085;1206;100264;-61
2023/04/03 00:06:24;;;;;;;10.70;2.00;;;;;;;-0.13;65.40;101847.49;110913;1206;139537;-61
2023/04/03 00:08:50;;;;;;;7.20;1.30;;;;;;;-0.15;65.51;101846.23;111078;1209;97785;-63
2023/04/03 00:11:16;;;;;;;10.80;1.90;;;;;;;-0.17;65.58;101848.66;111006;1211;139495;-62
2023/04/03 00:13:42;;;;;;;10.10;2.10;;;;;;;-0.20;65.77;101850.88;111064;1206;97571;-62
2023/04/03 00:16:09;;;;;;;5.90;1.30;;;;;;;-0.22;65.86;101851.36;111134;1211;97667;-62
2023/04/03 00:18:35;;;;;;;6.20;1.60;;;;;;;-0.25;65.88;101850.77;110912;1206;139095;-61
2023/04/03 00:21:01;;;;;;;6.00;1.20;;;;;;;-0.28;65.91;101850.73;110934;1206;97666;-63
2023/04/03 00:23:26;;;;;;;10.70;2.20;;;;;;;-0.28;65.93;101847.20;110890;1206;138856;-60
2023/04/03 00:25:52;;;;;;;7.40;1.70;;;;;;;-0.30;66.10;101846.80;111001;1211;97493;-60
2023/04/03 00:28:18;;;;;;;9.10;1.70;;;;;;;-0.30;66.27;101849.95;111116;1206;97710;-60
2023/04/03 00:30:44;;;;;;;9.90;1.50;;;;;;;-0.33;66.41;101851.31;110963;1212;139078;-61
2023/04/03 00:33:12;;;;;;;5.80;2.40;;;;;;;-0.35;66.51;101850.21;111024;1211;97617;-61
2023/04/03 00:35:38;;;;;;;4.40;1.60;;;;;;;-0.37;66.49;101850.18;110906;1206;138415;-61
2023/04/03 00:38:03;;;;;;;5.40;1.40;;;;;;;-0.38;66.61;101848.75;111125;1206;97617;-60
2023/04/03 00:40:35;;;;;;;3.60;1.70;;;;;;;-0.41;66.46;101849.58;110999;1209;111598;-60
2023/04/03 00:43:00;;;;;;;11.80;1.80;;;;;;;-0.42;66.74;101850.77;111067;1211;138976;-61
2023/04/03 00:45:36;;;;;;;7.30;1.70;;;;;;;-0.44;66.71;101851.61;111022;1211;97768;-60
2023/04/03 00:48:05;;;;;;;10.20;1.50;;;;;;;-0.46;66.86;101852.10;110968;1210;139218;-60
2023/04/03 00:50:34;;;;;;;5.60;1.40;;;;;;;-0.49;66.95;101857.48;111023;1209;97886;-60
2023/04/03 00:53:00;;;;;;;6.70;2.00;;;;;;;-0.50;67.27;101852.70;110976;1209;139213;-60
2023/04/03 00:55:25;;;;;;;3.30;1.10;;;;;;;-0.52;67.21;101850.22;111000;1211;97705;-61
2023/04/03 00:57:52;;;;;;;8.10;1.80;;;;;;;-0.54;67.38;101855.27;111112;1208;97735;-61
2023/04/03 01:00:20;;;;;;;5.80;1.50;;;;;;;-0.55;67.44;101858.75;110877;1211;139270;-61
2023/04/03 01:02:45;;;;;;;7.50;1.40;;;;;;;-0.57;67.39;101855.02;111065;1208;111965;-60
2023/04/03 01:05:12;;;;;;;4.70;1.30;;;;;;;-0.59;67.51;101853.23;110895;1211;140148;-61
2023/04/03 01:07:38;;;;;;;9.00;2.10;;;;;;;-0.60;67.52;101851.80;110977;1206;97694;-62
2023/04/03 01:10:08;;;;;;;4.30;1.50;;;;;;;-0.61;67.76;101859.50;111067;1206;98007;-61
2023/04/03 01:12:39;;;;;;;7.60;2.10;;;;;;;-0.63;67.62;101854.88;110881;1208;138528;-62
2023/04/03 01:15:12;;;;;;;;;;;;;;;-0.65;67.91;101858.20;111106;1211;99376;-59
2023/04/03 01:17:39;;;;;;;2.90;1.20;;;;;;;-0.67;67.93;101859.02;110887;1211;125012;-59
2023/04/03 01:20:32;;;;;;;14.00;1.70;;;;;;;-0.70;67.88;101859.15;111017;1211;97668;-61
2023/04/03 01:23:20;;;;;;;9.20;1.80;;;;;;;-0.73;68.00;101859.95;110911;1206;139264;-60
2023/04/03 01:25:49;;;;;;;6.60;1.60;;;;;;;-0.74;68.06;101858.35;110996;1205;111447;-60
2023/04/03 01:28:31;;;;;;;6.30;1.30;;;;;;;-0.74;68.10;101860.64;111094;1209;100087;-60
2023/04/03 01:31:45;;;;;;;3.50;1.30;;;;;;;-0.76;68.26;101861.29;110937;1211;138530;-61
2023/04/03 01:34:11;;;;;;;8.00;1.30;;;;;;;-0.78;68.35;101864.58;110599;1211;97804;-61
2023/04/03 01:36:36;;;;;;;9.30;1.80;;;;;;;-0.79;68.53;101868.22;110695;1215;152429;-61
2023/04/03 01:39:02;;;;;;;8.50;1.60;;;;;;;-0.81;68.41;101871.17;111140;1222;97135;-61
2023/04/03 01:41:28;;;;;;;6.00;1.70;;;;;;;-0.83;68.37;101874.29;110843;1206;139742;-61
2023/04/03 01:43:53;;;;;;;9.70;1.20;;;;;;;-0.85;68.54;101876.34;110966;1211;99560;-61
2023/04/03 01:46:19;;;;;;;2.90;1.30;;;;;;;-0.86;68.83;101878.95;111091;1211;97696;-61
2023/04/03 01:48:45;;;;;;;8.70;1.50;;;;;;;-0.87;68.72;101880.50;110985;1206;138968;-61
2023/04/03 01:51:10;;;;;;;8.30;1.30;;;;;;;-0.86;68.86;101881.59;110990;1211;97600;-61
2023/04/03 01:53:36;;;;;;;19.60;3.20;;;;;;;-0.87;68.99;101886.29;110914;1206;139117;-62
2023/04/03 01:56:01;;;;;;;14.40;1.60;;;;;;;-0.90;68.96;101887.11;111043;1209;97590;-61
2023/04/03 01:58:26;;;;;;;4.40;1.30;;;;;;;-0.92;69.06;101888.80;110972;1206;97655;-61
2023/04/03 02:00:52;;;;;;;12.70;3.00;;;;;;;-0.95;69.11;101887.16;110910;1208;139634;-61
2023/04/03 02:03:18;;;;;;;8.30;1.90;;;;;;;-0.96;69.23;101889.60;110995;1206;100678;-60
2023/04/03 02:05:44;;;;;;;7.80;1.40;;;;;;;-0.97;69.27;101893.60;111108;1211;140662;-61
2023/04/03 02:08:09;;;;;;;4.50;1.80;;;;;;;-1.00;69.21;101895.66;111114;1206;97731;-59
2023/04/03 02:10:35;;;;;;;7.10;1.40;;;;;;;-1.02;69.37;101897.53;110963;1211;98779;-60
2023/04/03 02:13:00;;;;;;;4.70;1.50;;;;;;;-1.04;69.33;101897.13;111015;1206;138545;-60
2023/04/03 02:15:25;;;;;;;13.30;1.40;;;;;;;-1.03;69.44;101896.09;111035;1211;97626;-59
2023/04/03 02:17:51;;;;;;;7.40;1.10;;;;;;;-1.05;69.42;101898.17;110928;1211;140784;-59
2023/04/03 02:20:17;;;;;;;6.90;1.50;;;;;;;-1.07;69.50;101896.35;110994;1206;97599;-60
2023/04/03 02:22:42;;;;;;;5.50;1.30;;;;;;;-1.09;69.66;101896.13;110930;1206;138589;-59
2023/04/03 02:25:08;;;;;;;2.90;1.00;;;;;;;-1.10;69.53;101899.80;111090;1211;97672;-60
2023/04/03 02:27:33;;;;;;;9.50;1.90;;;;;;;-1.11;69.70;101897.33;110994;1206;97645;-60
2023/04/03 02:29:59;;;;;;;3.90;1.00;;;;;;;-1.12;69.63;101900.61;110992;1211;140051;-59
2023/04/03 02:32:24;;;;;;;11.60;2.60;;;;;;;-1.14;69.73;101902.16;111033;1211;98041;-60
2023/04/03 02:34:49;;;;;;;15.90;1.80;;;;;;;-1.14;69.97;101904.25;110929;1211;139896;-60
2023/04/03 02:37:15;;;;;;;4.60;1.30;;;;;;;-1.16;70.09;101909.48;111066;1206;97633;-60
2023/04/03 02:39:40;;;;;;;5.40;1.70;;;;;;;-1.17;69.98;101910.48;110983;1206;97591;-62
2023/04/03 02:42:07;;;;;;;14.10;1.80;;;;;;;-1.18;70.13;101909.59;110970;1211;138499;-61
2023/04/03 02:44:32;;;;;;;8.10;1.20;;;;;;;-1.18;70.52;101910.45;110910;1205;97755;-60
2023/04/03 02:46:57;;;;;;;7.70;1.40;;;;;;;-1.19;70.44;101908.34;111006;1206;139003;-60
2023/04/03 02:49:23;;;;;;;3.90;1.40;;;;;;;-1.19;70.59;101913.95;111089;1207;97696;-61
2023/04/03 02:51:48;;;;;;;5.80;1.60;;;;;;;-1.21;70.40;101916.89;110958;1211;98729;-61
2023/04/03 02:54:13;;;;;;;8.40;1.40;;;;;;;-1.22;70.48;101920.19;110889;1210;138618;-60
2023/04/03 02:56:39;;;;;;;12.70;1.70;;;;;;;-1.22;70.66;101918.27;110907;1211;97722;-60
2023/04/03 02:59:04;;;;;;;6.70;1.70;;;;;;;-1.23;70.62;101921.91;110937;1208;140823;-60
2023/04/03 03:01:32;;;;;;;7.80;1.50;;;;;;;-1.25;70.90;101920.13;111037;1211;97721;-61
2023/04/03 03:04:00;;;;;;;7.80;1.60;;;;;;;-1.26;70.78;101922.36;111015;1210;97694;-63
2023/04/03 03:06:26;;;;;;;6.50;1.20;;;;;;;-1.28;70.96;101925.11;110934;1210;138496;-60
2023/04/03 03:08:51;;;;;;;5.80;1.60;;;;;;;-1.31;71.18;101922.95;110973;1212;97760;-62
2023/04/03 03:11:16;;;;;;;11.90;2.90;;;;;;;-1.33;70.98;101927.11;110909;1206;139395;-61
2023/04/03 03:13:42;;;;;;;5.00;1.00;;;;;;;-1.33;71.05;101928.52;110994;1211;97716;-61
2023/04/03 03:16:07;;;;;;;7.80;1.10;;;;;;;-1.34;71.37;101927.95;111148;1210;97701;-61
2023/04/03 03:18:33;;;;;;;3.00;1.50;;;;;;;-1.36;71.14;101933.70;110896;1209;139848;-62
2023/04/03 03:21:00;;;;;;;13.90;2.00;;;;;;;-1.37;71.30;101933.65;111045;1206;97735;-61
2023/04/03 03:23:27;;;;;;;6.80;1.80;;;;;;;-1.39;71.17;101933.79;110895;1209;139237;-60
2023/04/03 03:26:01;;;;;;;9.40;1.50;;;;;;;-1.41;71.57;101932.67;111009;1208;97578;-60
2023/04/03 03:28:27;;;;;;;6.70;1.70;;;;;;;-1.43;71.66;101935.96;110863;1211;99834;-59
2023/04/03 03:30:53;;;;;;;5.80;2.90;;;;;;;-1.44;71.44;101936.61;110941;1206;140213;-62
2023/04/03 03:33:18;;;;;;;7.50;1.20;;;;;;;-1.46;71.59;101942.01;111045;1211;99063;-60
2023/04/03 03:35:44;;;;;;;3.10;1.20;;;;;;;-1.47;71.57;101944.61;110950;1206;140084;-60
2023/04/03 03:38:10;;;;;;;9.20;1.90;;;;;;;-1.48;71.58;101943.19;111052;1210;97726;-60
2023/04/03 03:40:35;;;;;;;9.10;1.20;;;;;;;-1.50;71.83;101944.54;111101;1206;97769;-60
2023/04/03 03:43:01;;;;;;;2.80;1.10;;;;;;;-1.53;71.98;101946.04;110926;1206;138514;-61
2023/04/03 03:45:26;;;;;;;5.50;1.30;;;;;;;-1.55;72.05;101944.23;110965;1212;97616;-60
2023/04/03 03:47:51;;;;;;;4.40;0.80;;;;;;;-1.56;71.86;101945.77;111005;1206;139773;-60
2023/04/03 03:50:17;;;;;;;15.30;1.80;;;;;;;-1.59;71.96;101947.63;110916;1206;97651;-60
2023/04/03 03:52:42;;;;;;;5.50;1.30;;;;;;;-1.61;72.14;101948.27;110947;1211;139523;-60
2023/04/03 03:55:07;;;;;;;11.50;1.30;;;;;;;-1.62;72.44;101948.41;111072;1206;97625;-61
2023/04/03 03:57:33;;;;;;;7.60;1.10;;;;;;;-1.63;72.60;101948.39;110999;1206;97579;-62
2023/04/03 03:59:58;;;;;;;3.70;1.00;;;;;;;-1.66;72.79;101950.60;110950;1211;139266;-61
2023/04/03 04:02:23;;;;;;;12.10;1.10;;;;;;;-1.67;72.76;101951.44;110917;1206;99036;-60
2023/04/03 04:04:49;;;;;;;7.00;1.00;;;;;;;-1.68;72.88;101947.73;110926;1209;138818;-61
2023/04/03 04:07:14;;;;;;;4.00;1.00;;;;;;;-1.69;72.83;101950.15;111140;1209;97575;-60
2023/04/03 04:09:39;;;;;;;6.90;1.10;;;;;;;-1.70;73.17;101950.30;111041;1211;97720;-60
2023/04/03 04:12:05;;;;;;;8.00;1.60;;;;;;;-1.71;72.98;101950.11;110947;1211;139219;-60
2023/04/03 04:14:31;;;;;;;4.30;1.50;;;;;;;-1.70;73.17;101947.15;110962;1206;97593;-60
2023/04/03 04:16:56;;;;;;;11.80;1.80;;;;;;;-1.70;73.15;101946.80;111019;1208;139206;-61
2023/04/03 04:19:22;;;;;;;6.30;1.50;;;;;;;-1.70;73.46;101952.42;110929;1208;97671;-60
2023/04/03 04:21:47;;;;;;;7.50;1.30;;;;;;;-1.68;73.33;101952.81;111012;1205;96868;-60
2023/04/03 04:24:12;;;;;;;6.90;1.90;;;;;;;-1.68;73.39;101955.61;110958;1209;138904;-61
2023/04/03 04:26:37;;;;;;;6.50;1.40;;;;;;;-1.68;73.46;101959.84;111006;1209;99107;-60
2023/04/03 04:29:03;;;;;;;15.20;1.40;;;;;;;-1.66;73.62;101964.44;111005;1211;139077;-60
2023/04/03 04:31:28;;;;;;;8.00;2.00;;;;;;;-1.66;74.01;101966.36;111027;1205;97628;-60
2023/04/03 04:33:53;;;;;;;5.80;1.10;;;;;;;-1.66;73.81;101967.08;111031;1222;97570;-61
2023/04/03 04:36:19;;;;;;;6.10;1.50;;;;;;;-1.65;73.51;101969.02;110844;1206;139947;-61
2023/04/03 04:38:45;;;;;;;3.20;1.20;;;;;;;-1.65;73.84;101965.70;110937;1206;97602;-59
2023/04/03 04:41:10;;;;;;;12.40;1.50;;;;;;;-1.65;74.07;101969.55;110903;1211;139065;-60
2023/04/03 04:43:36;;;;;;;6.90;1.80;;;;;;;-1.64;73.95;101972.38;110977;1208;97688;-60
2023/04/03 04:46:10;;;;;;;4.00;1.50;;;;;;;-1.63;73.91;101975.20;111091;1211;99061;-60
2023/04/03 04:48:36;;;;;;;6.80;1.50;;;;;;;-1.62;74.39;101976.97;110852;1211;138253;-61
2023/04/03 04:51:02;;;;;;;7.10;1.00;;;;;;;-1.63;74.32;101979.58;110886;1209;97597;-60
2023/04/03 04:53:27;;;;;;;3.40;1.20;;;;;;;-1.63;74.40;101981.88;110984;1212;139032;-60
2023/04/03 04:55:53;;;;;;;12.90;1.90;;;;;;;-1.62;74.44;101986.80;110996;1206;111878;-61
2023/04/03 04:58:19;;;;;;;9.00;2.00;;;;;;;-1.61;74.30;101984.02;110972;1209;97703;-60
2023/04/03 05:00:45;;;;;;;14.50;2.20;;;;;;;-1.60;74.52;101988.23;111055;1206;138877;-61
2023/04/03 05:03:10;;;;;;;8.00;1.00;;;;;;;-1.59;74.76;101989.16;111076;1208;97820;-61
2023/04/03 05:05:36;;;;;;;7.40;1.40;;;;;;;-1.57;74.59;101990.95;110899;1220;138880;-61
2023/04/03 05:08:02;;;;;;;18.80;1.70;;;;;;;-1.55;74.52;101991.38;111120;1208;97619;-61
2023/04/03 05:10:27;;;;;;;8.90;1.60;;;;;;;-1.53;74.69;101988.29;111123;1210;97707;-61
2023/04/03 05:12:53;;;;;;;5.20;1.30;;;;;;;-1.52;74.50;101989.18;110949;1209;140627;-61
2023/04/03 05:15:18;;;;;;;4.40;1.10;;;;;;;-1.50;74.79;101990.46;111061;1206;98931;-61
2023/04/03 05:17:44;;;;;;;6.90;1.40;;;;;;;-1.48;74.73;101991.21;110885;1206;140900;-61
2023/04/03 05:20:10;;;;;;;7.50;1.70;;;;;;;-1.45;74.85;101993.05;111112;1209;97706;-61
2023/04/03 05:22:35;;;;;;;10.20;1.40;;;;;;;-1.42;74.90;101994.35;111004;1211;111794;-59
2023/04/03 05:25:00;;;;;;;6.00;1.40;;;;;;;-1.40;75.25;101998.80;110900;1207;141209;-62
2023/04/03 05:27:27;;;;;;;10.00;1.30;;;;;;;-1.39;74.94;101993.92;111007;1209;97763;-62
2023/04/03 05:29:54;;;;;;;11.60;1.50;;;;;;;-1.36;75.27;101997.52;110844;1206;140582;-62
2023/04/03 05:32:19;;;;;;;7.40;1.00;;;;;;;-1.33;75.14;101999.52;111196;1211;97603;-60
2023/04/03 05:34:44;;;;;;;12.30;1.90;;;;;;;-1.29;75.07;102001.36;110899;1206;140231;-60
2023/04/03 05:37:10;;;;;;;6.80;1.50;;;;;;;-1.26;75.22;101999.16;110976;1206;97604;-60
2023/04/03 05:39:36;;;;;;;5.20;1.40;;;;;;;-1.22;75.19;102003.66;110891;1209;97604;-60
2023/04/03 05:42:01;;;;;;;15.40;1.70;;;;;;;-1.18;75.18;102007.10;110974;1207;140453;-60
2023/04/03 05:44:26;;;;;;;3.50;1.40;;;;;;;-1.14;75.19;102007.39;110825;1206;97674;-61
2023/04/03 05:46:52;;;;;;;10.80;1.60;;;;;;;-1.09;75.10;102002.42;110889;1205;138974;-64
2023/04/03 05:49:17;;;;;;;11.50;1.50;;;;;;;-1.05;75.27;102007.28;110938;1205;111159;-61
2023/04/03 05:51:44;;;;;;;3.70;1.30;;;;;;;-0.99;75.09;102007.77;110941;1211;97760;-61
2023/04/03 05:54:18;;;;;;;9.60;1.30;;;;;;;-0.93;75.47;102009.31;110724;1206;140826;-62
2023/04/03 05:56:43;;;;;;;6.90;2.10;;;;;;;-0.87;75.25;102010.87;113215;1206;95827;-61
2023/04/03 05:59:09;;;;;;;9.20;1.90;;;;;;;-0.84;75.46;102006.40;111364;1210;140521;-62
2023/04/03 06:01:35;;;;;;;9.10;1.50;;;;;;;-0.79;75.21;102006.33;110868;1206;97732;-61
2023/04/03 06:04:00;;;;;;;13.20;1.70;;;;;;;-0.74;75.37;102009.27;110910;1208;97657;-60
2023/04/03 06:06:25;;;;;;;7.60;1.60;;;;;;;-0.68;75.39;102010.32;110628;1219;139008;-60
2023/04/03 06:08:51;;;;;;;3.90;1.50;;;;;;;-0.60;75.39;102010.33;110840;1211;97751;-60
2023/04/03 06:11:16;;;;;;;6.40;2.50;;;;;;;-0.54;75.51;102013.45;110737;1206;139104;-60
2023/04/03 06:13:42;;;;;;;27.00;2.50;;;;;;;-0.48;75.33;102015.69;110845;1210;98618;-60
2023/04/03 06:16:14;;;;;;;3.90;1.20;;;;;;;-0.43;75.30;102017.05;110826;1206;98275;-60
2023/04/03 06:18:39;;;;;;;6.90;1.50;;;;;;;-0.40;75.25;102023.10;110674;1206;138923;-60
2023/04/03 06:21:05;;;;;;;11.20;2.00;;;;;;;-0.31;75.28;102021.00;110920;1211;97714;-60
2023/04/03 06:23:30;;;;;;;8.70;2.40;;;;;;;-0.22;75.23;102023.84;110854;1208;138587;-62
2023/04/03 06:25:56;;;;;;;13.90;1.60;;;;;;;-0.16;75.18;102023.64;110907;1210;97725;-61
2023/04/03 06:28:21;;;;;;;7.80;1.70;;;;;;;-0.09;75.19;102024.31;110802;1208;98015;-62
2023/04/03 06:30:46;;;;;;;10.60;1.80;;;;;;;-0.05;75.14;102023.36;110812;1209;140197;-60
2023/04/03 06:33:11;;;;;;;11.70;2.00;;;;;;;-0.01;75.15;102028.70;110882;1205;97620;-61
2023/04/03 06:35:38;;;;;;;10.00;1.90;;;;;;;0.08;75.11;102026.59;110824;1210;139621;-62
2023/04/03 06:38:09;;;;;;;7.60;1.10;;;;;;;0.14;75.04;102024.60;111000;1211;98814;-59
2023/04/03 06:40:35;;;;;;;4.60;1.60;;;;;;;0.22;74.94;102027.77;111008;1209;107866;-60
2023/04/03 06:43:00;;;;;;;7.00;1.20;;;;;;;0.28;74.94;102032.99;110696;1206;138158;-60
2023/04/03 06:45:26;;;;;;;4.90;1.10;;;;;;;0.33;74.63;102029.58;111048;1207;97703;-60
2023/04/03 06:47:51;;;;;;;8.70;1.30;;;;;;;0.38;74.52;102028.45;110872;1220;138271;-60
2023/04/03 06:50:16;;;;;;;5.50;1.70;;;;;;;0.44;74.24;102025.95;110999;1206;97676;-60
2023/04/03 06:52:42;;;;;;;7.60;1.60;;;;;;;0.50;74.12;102029.58;110922;1206;140335;-61
2023/04/03 06:55:09;;;;;;;7.50;1.80;;;;;;;0.57;74.19;102032.89;110928;1211;97655;-62
2023/04/03 06:57:34;;;;;;;12.00;1.30;;;;;;;0.63;74.07;102036.35;110911;1210;98128;-62
2023/04/03 06:59:59;;;;;;;15.30;1.40;;;;;;;0.70;74.01;102035.06;110723;1211;139439;-62
2023/04/03 07:02:25;;;;;;;9.50;1.80;;;;;;;0.74;73.91;102040.24;110891;1211;97843;-61
2023/04/03 07:04:50;;;;;;;7.70;1.90;;;;;;;0.76;73.55;102041.17;110869;1211;138451;-61
2023/04/03 07:07:17;;;;;;;6.40;1.50;;;;;;;0.80;73.44;102047.04;110916;1205;107986;-61
2023/04/03 07:09:42;;;;;;;4.90;1.20;;;;;;;0.86;73.39;102048.73;110944;1211;97684;-62
2023/04/03 07:12:08;;;;;;;5.00;1.20;;;;;;;0.91;73.24;102051.66;110979;1205;138152;-61
2023/04/03 07:14:33;;;;;;;7.70;1.40;;;;;;;1.00;73.03;102051.98;110932;1211;99000;-61
2023/04/03 07:16:58;;;;;;;9.70;1.60;;;;;;;1.05;72.86;102056.31;110771;1207;139392;-61
2023/04/03 07:19:27;;;;;;;5.30;1.30;;;;;;;1.08;72.83;102058.47;110980;1209;98041;-61
2023/04/03 07:21:52;;;;;;;10.00;2.40;;;;;;;1.13;72.78;102062.97;110898;1206;111687;-62
2023/04/03 07:24:17;;;;;;;11.10;1.60;;;;;;;1.18;72.61;102058.65;110838;1209;139289;-62
2023/04/03 07:26:44;;;;;;;5.10;1.60;;;;;;;1.25;72.73;102061.77;110620;1211;97731;-61
2023/04/03 07:29:10;;;;;;;8.30;2.40;;;;;;;1.34;72.44;102062.63;110753;1211;139117;-61
2023/04/03 07:31:35;;;;;;;3.40;1.20;;;;;;;1.39;71.66;102063.60;110713;1211;97668;-61
2023/04/03 07:34:02;;;;;;;5.70;1.50;;;;;;;1.43;71.34;102064.89;110937;1208;97660;-61
2023/04/03 07:36:27;;;;;;;5.00;1.30;;;;;;;1.50;70.98;102067.48;110895;1209;139538;-62
2023/04/03 07:38:53;;;;;;;6.90;1.60;;;;;;;1.57;70.80;102070.77;110975;1220;99942;-60
2023/04/03 07:41:20;;;;;;;4.40;1.10;;;;;;;1.69;70.61;102072.73;110667;1206;138582;-60
2023/04/03 07:43:46;;;;;;;6.40;1.00;;;;;;;1.78;69.00;102070.38;111032;1211;107433;-60
2023/04/03 07:46:12;;;;;;;4.40;1.20;;;;;;;1.82;69.25;102070.63;111065;1206;97699;-60
2023/04/03 07:48:38;;;;;;;7.80;0.80;;;;;;;1.84;69.03;102072.77;110874;1208;138184;-61
2023/04/03 07:51:04;;;;;;;10.00;0.90;;;;;;;1.84;68.34;102072.08;111004;1206;99896;-62
2023/04/03 07:53:30;;;;;;;4.30;1.20;;;;;;;1.83;68.23;102075.94;110772;1211;138913;-61
2023/04/03 07:55:57;;;;;;;4.90;1.60;;;;;;;1.83;67.97;102075.77;111105;1206;97609;-60
2023/04/03 07:58:22;;;;;;;3.60;1.10;;;;;;;1.83;67.79;102073.65;111147;1208;97573;-60
2023/04/03 08:00:48;;;;;;;5.00;1.50;;;;;;;1.85;67.77;102076.67;110848;1211;137676;-60
2023/04/03 08:03:16;;;;;;;7.60;1.40;;;;;;;1.91;67.58;102077.48;111037;1211;97665;-59
2023/04/03 08:05:43;;;;;;;10.50;2.80;;;;;;;1.98;67.03;102078.45;110874;1209;138867;-59
2023/04/03 08:08:12;;;;;;;7.70;0.90;;;;;;;2.04;66.82;102076.77;110919;1206;98104;-61
2023/04/03 08:10:37;;;;;;;2.80;1.20;;;;;;;2.10;66.51;102083.56;111011;1209;96897;-60
2023/04/03 08:13:03;;;;;;;1.70;1.10;;;;;;;2.18;66.31;102083.31;110910;1209;139146;-60
2023/04/03 08:15:29;;;;;;;12.20;1.90;;;;;;;2.26;65.99;102079.90;111063;1206;96876;-59
2023/04/03 08:17:55;;;;;;;16.50;1.80;;;;;;;2.30;65.50;102082.61;111012;1208;137945;-60
2023/04/03 08:20:20;;;;;;;3.40;1.20;;;;;;;2.36;65.53;102084.98;111009;1205;96494;-60
2023/04/03 08:22:46;;;;;;;3.30;1.30;;;;;;;2.48;65.59;102085.31;110946;1207;137642;-62
2023/04/03 08:25:11;;;;;;;11.50;4.10;;;;;;;2.56;65.63;102088.23;111017;1208;98885;-60
2023/04/03 08:27:37;;;;;;;9.80;2.90;;;;;;;2.65;65.59;102085.14;111070;1220;97677;-60
2023/04/03 08:30:04;;;;;;;9.10;1.90;;;;;;;2.74;65.39;102085.60;110926;1209;137916;-62
2023/04/03 08:32:29;;;;;;;5.70;1.60;;;;;;;2.88;65.25;102080.11;111057;1211;97703;-61
2023/04/03 08:34:54;;;;;;;5.10;1.50;;;;;;;2.99;65.11;102081.11;110929;1208;140087;-61
2023/04/03 08:37:20;;;;;;;9.00;1.70;;;;;;;3.07;65.06;102083.14;111082;1211;97620;-60
2023/04/03 08:39:45;;;;;;;4.50;1.10;;;;;;;3.12;64.47;102087.42;111019;1211;97695;-60
2023/04/03 08:42:36;;;;;;;7.50;1.60;;;;;;;3.14;64.32;102084.44;110959;1207;137616;-64
2023/04/03 08:45:08;;;;;;;31.10;2.90;;;;;;;3.18;63.66;102086.44;111084;1211;98999;-60
2023/04/03 08:47:39;;;;;;;5.90;1.60;;;;;;;3.15;63.13;102084.27;110803;1211;140481;-61
2023/04/03 08:50:21;;;;;;;5.40;1.60;;;;;;;3.12;62.55;102088.67;110719;1211;100059;-61
2023/04/03 08:52:57;;;;;;;6.40;1.70;;;;;;;2.97;61.52;102083.91;110536;1211;138906;-60
2023/04/03 08:55:24;;;;;;;2.70;1.50;;;;;;;2.93;61.99;102084.41;110441;1213;97918;-59
2023/04/03 08:58:04;;;;;;;4.60;1.50;;;;;;;2.93;61.31;102085.30;110624;1211;97675;-60
2023/04/03 09:00:40;;;;;;;8.00;2.00;;;;;;;2.86;60.88;102083.27;110120;1206;137894;-60
2023/04/03 09:03:12;;;;;;;5.50;1.40;;;;;;;2.74;60.12;102084.71;110706;1206;100534;-60
2023/04/03 09:05:38;;;;;;;11.10;1.70;;;;;;;2.63;59.55;102086.01;110717;1211;138905;-61
2023/04/03 09:08:21;;;;;;;7.60;1.60;;;;;;;2.62;60.16;102090.05;110815;1211;97783;-60
2023/04/03 09:10:46;;;;;;;6.20;1.30;;;;;;;2.72;59.56;102085.92;110758;1211;138370;-61
2023/04/03 09:13:44;;;;;;;14.80;1.70;;;;;;;2.71;59.20;102081.15;111011;1211;97703;-61
2023/04/03 09:16:42;;;;;;;8.80;1.70;;;;;;;2.69;59.77;102084.66;110925;1208;100127;-61
2023/04/03 09:19:27;;;;;;;7.40;1.40;;;;;;;2.69;59.06;102079.35;110920;1208;107723;-61
2023/04/03 09:21:53;;;;;;;10.60;1.40;;;;;;;2.77;59.31;102080.88;111004;1206;97680;-61
2023/04/03 09:24:20;;;;;;;2.40;1.10;;;;;;;2.80;58.71;102077.55;110700;1220;139571;-61
2023/04/03 09:26:51;;;;;;;8.30;1.90;;;;;;;2.76;58.95;102079.45;110961;1206;97699;-61
2023/04/03 09:29:22;;;;;;;6.00;1.60;;;;;;;2.76;58.52;102081.57;110693;1211;138194;-62
2023/04/03 09:32:02;;;;;;;5.50;1.40;;;;;;;2.81;57.81;102073.16;110854;1210;107840;-61
2023/04/03 09:34:31;;;;;;;7.90;1.20;;;;;;;2.86;56.86;102083.44;110706;1210;99050;-61
2023/04/03 09:37:05;;;;;;;5.20;1.40;;;;;;;2.91;57.12;102081.73;110680;1211;138747;-61
2023/04/03 09:39:31;;;;;;;7.30;1.40;;;;;;;2.97;56.43;102081.62;110868;1220;111752;-61
2023/04/03 09:42:01;;;;;;;6.30;1.80;;;;;;;3.06;56.82;102076.95;110773;1221;137734;-61
2023/04/03 09:44:36;;;;;;;4.80;1.50;;;;;;;3.10;56.20;102075.23;110926;1211;108073;-61
2023/04/03 09:47:18;;;;;;;2.90;1.30;;;;;;;3.06;55.72;102072.36;110934;1212;140163;-60
2023/04/03 09:49:43;;;;;;;3.60;1.40;;;;;;;3.01;55.62;102076.90;110857;1211;97710;-60
2023/04/03 09:52:23;;;;;;;5.70;1.10;;;;;;;3.04;55.01;102077.45;110838;1207;97582;-63
2023/04/03 09:54:48;;;;;;;9.90;2.10;;;;;;;3.09;55.67;102081.05;110933;1211;138368;-62
2023/04/03 09:57:13;;;;;;;3.80;1.40;;;;;;;3.21;55.67;102073.56;110957;1211;98071;-62
2023/04/03 09:59:44;;;;;;;4.60;1.40;;;;;;;3.28;55.64;102073.10;110887;1206;137938;-60
2023/04/03 10:02:15;;;;;;;2.60;1.20;;;;;;;3.30;54.68;102071.54;110873;1211;111687;-60
2023/04/03 10:04:41;;;;;;;3.10;1.00;;;;;;;3.33;54.71;102069.27;110969;1207;99850;-61
2023/04/03 10:07:27;;;;;;;6.80;1.30;;;;;;;3.33;54.53;102068.21;110970;1211;138832;-60
2023/04/03 10:10:15;;;;;;;3.50;1.50;;;;;;;3.37;54.64;102067.00;110902;1211;97575;-62
2023/04/03 10:12:41;;;;;;;6.10;1.20;;;;;;;3.44;54.63;102066.36;110742;1207;137716;-60
2023/04/03 10:15:15;;;;;;;4.30;1.30;;;;;;;3.49;54.59;102059.33;110979;1212;97749;-60
2023/04/03 10:18:01;;;;;;;6.30;1.70;;;;;;;3.53;54.53;102063.26;110846;1211;137892;-60
2023/04/03 10:20:39;;;;;;;6.30;1.80;;;;;;;3.60;54.18;102059.95;110986;1209;108353;-60
2023/04/03 10:23:29;;;;;;;8.40;1.70;;;;;;;3.73;53.95;102054.92;110919;1211;138342;-60
2023/04/03 10:26:26;;;;;;;5.10;1.00;;;;;;;3.86;54.26;102056.79;110933;1207;99993;-60
2023/04/03 10:29:02;;;;;;;5.40;1.40;;;;;;;3.95;53.83;102061.97;110849;1212;137612;-61
2023/04/03 10:32:01;;;;;;;12.50;2.00;;;;;;;4.00;53.38;102060.59;110913;1211;99795;-61
2023/04/03 10:34:38;;;;;;;5.50;1.90;;;;;;;3.89;52.85;102052.02;110917;1211;107985;-61
2023/04/03 10:37:18;;;;;;;10.00;2.00;;;;;;;3.78;53.27;102055.84;110957;1211;138478;-60
2023/04/03 10:40:15;;;;;;;5.90;1.80;;;;;;;3.84;53.31;102055.17;110903;1206;96489;-60
2023/04/03 10:43:16;;;;;;;7.20;1.20;;;;;;;4.02;52.87;102051.75;110880;1211;138084;-60
2023/04/03 10:46:03;;;;;;;7.40;1.40;;;;;;;4.28;53.36;102041.27;110659;1214;99799;-61
2023/04/03 10:48:37;;;;;;;6.30;1.80;;;;;;;4.42;53.29;102035.15;110781;1210;138642;-62
2023/04/03 10:51:30;;;;;;;5.10;1.50;;;;;;;4.55;52.55;102039.45;110918;1206;97671;-61
2023/04/03 10:54:06;;;;;;;8.50;1.80;;;;;;;4.58;52.35;102033.63;110912;1212;139720;-61
2023/04/03 10:56:44;;;;;;;11.30;1.80;;;;;;;4.66;52.34;102039.66;110931;1210;111910;-61
2023/04/03 10:59:31;;;;;;;4.30;1.80;;;;;;;4.57;51.58;102041.94;110832;1219;138324;-61
2023/04/03 11:02:02;;;;;;;13.30;3.00;;;;;;;4.50;52.28;102037.13;110782;1211;106422;-61
2023/04/03 11:04:31;;;;;;;7.00;1.90;;;;;;;4.66;52.31;102035.24;110872;1209;97686;-61
2023/04/03 11:07:09;;;;;;;7.00;1.50;;;;;;;4.68;50.06;102046.23;110825;1211;138327;-61
2023/04/03 11:09:40;;;;;;;22.00;2.60;;;;;;;4.52;50.92;102046.52;110957;1206;111649;-60
2023/04/03 11:12:32;;;;;;;12.00;1.90;;;;;;;4.58;50.99;102043.88;110815;1206;139506;-60
2023/04/03 11:14:58;;;;;;;5.90;1.60;;;;;;;4.62;51.29;102039.65;110892;1211;108058;-61
2023/04/03 11:17:33;;;;;;;3.20;1.50;;;;;;;4.69;51.37;102040.02;110762;1211;137855;-60
2023/04/03 11:20:14;;;;;;;15.00;2.00;;;;;;;4.69;50.41;102037.73;110922;1212;97691;-61
2023/04/03 11:22:48;;;;;;;12.00;1.90;;;;;;;4.63;50.14;102039.13;110906;1211;109928;-61